Nearby METAR Reports

 

KISP - Islip, New York, USA
Distance from station: SW 4mi, 6km
Updated: Mon, 12/11/2017 4:56 pm EST
Overcast
Overcast
 Wind from calm
Wind: Calm
Temperature: 37°F , 3°C
Dew Point: 23°F , -5°C
Humidity: 56%
Barometer: 30.00 inHg , 1015.9 hPa
Clouds: Overcast
Visibility: 10 miles , 16 km
Cloud details: Few Clouds 5000 ft
Partly cloudy 15000 ft
Overcast 25000 ft
2017/12/11 21:56 KISP 112156Z 00000KT 10SM FEW050 SCT150 OVC250 03/M05 A3000 RMK AO2 SLP160 T00281050
KHWV - Shirley, New York, USA
Distance from station: E 10mi, 16km
Updated: Mon, 12/11/2017 4:56 pm EST
Clear
Clear
 Wind from calm
Wind: Calm
Temperature: 36°F , 2°C
Dew Point: 25°F , -4°C
Humidity: 65%
Barometer: 30.01 inHg , 1016.3 hPa
Clouds: Clear
Visibility: 10 miles , 16 km
2017/12/11 21:56 KHWV 112156Z AUTO 00000KT 10SM CLR 02/M04 A3001 RMK AO2 SLP163 T00171044
 
KFRG - Farmingdale, New York, USA
Distance from station: WSW 20mi, 33km
Updated: Mon, 12/11/2017 4:53 pm EST
Clear
Clear
 Wind from NNW
Wind: NNW 3 mph , 6 km/h
Temperature: 39°F , 4°C
Dew Point: 21°F , -6°C
Humidity: 48%
Barometer: 30.01 inHg , 1016.3 hPa
Clouds: Clear
Visibility: 10 miles , 16 km
2017/12/11 21:53 KFRG 112153Z 34003KT 10SM CLR 04/M06 A3001 RMK AO2 SLP161 T00391061
KBDR - Bridgeport, Connecticut, USA
Distance from station: N 23mi, 37km
Updated: Mon, 12/11/2017 4:52 pm EST
Clear
Clear
 Wind from NNW
Wind: NNW 5 mph , 7 km/h
Temperature: 37°F , 3°C
Wind Chill: 33°F , 1°C
Dew Point: 19°F , -7°C
Humidity: 48%
Barometer: 30.01 inHg , 1016.3 hPa
Clouds: Clear
Visibility: 10 miles , 16 km
2017/12/11 21:52 KBDR 112152Z 33004KT 10SM CLR 03/M07 A3001 RMK AO2 SLP161 T00331072
 
KFOK - Westhampton Beac, New York, USA
Distance from station: E 23mi, 37km
Updated: Mon, 12/11/2017 4:53 pm EST
Clear
Clear
 Wind from calm
Wind: Calm
Temperature: 30°F , -1°C
Dew Point: 21°F , -6°C
Humidity: 69%
Barometer: 30.02 inHg , 1016.6 hPa
Clouds: Clear
Visibility: 10 miles , 16 km
2017/12/11 21:53 KFOK 112153Z 00000KT 10SM CLR M01/M06 A3002 RMK AO2 SLP165 T10111056
KHVN - New Haven/Tweed, Connecticut, USA
Distance from station: NNE 31mi, 50km
Updated: Mon, 12/11/2017 4:53 pm EST
Clear
Clear
 Wind from NW
Wind: NW 7 mph , 11 km/h
Temperature: 37°F , 3°C
Wind Chill: 32°F , 0°C
Dew Point: 19°F , -7°C
Humidity: 48%
Barometer: 30.01 inHg , 1016.3 hPa
Clouds: Clear
Visibility: 10 miles , 16 km
2017/12/11 21:53 KHVN 112153Z 32006KT 10SM CLR 03/M07 A3001 RMK AO2 SLP161 T00331072
 
KHPN - White Plains, New York, USA
Distance from station: WNW 37mi, 60km
Updated: Mon, 12/11/2017 4:56 pm EST
Clear
Clear
 Wind from N
Wind: N 3 mph , 6 km/h
Temperature: 36°F , 2°C
Dew Point: 19°F , -7°C
Humidity: 52%
Barometer: 29.97 inHg , 1014.9 hPa
Clouds: Clear
Visibility: 10 miles , 16 km
2017/12/11 21:56 KHPN 112156Z 35003KT 10SM CLR 02/M07 A2997 RMK AO2 SLP155 T00171067
KJFK - Nyc/Jfk Arpt, New York, USA
Distance from station: WSW 40mi, 64km
Updated: Mon, 12/11/2017 4:51 pm EST
Mostly cloudy
Mostly cloudy
 Wind from W
Wind: W 8 mph , 13 km/h
Temperature: 39°F , 4°C
Wind Chill: 33°F , 1°C
Dew Point: 23°F , -5°C
Humidity: 52%
Barometer: 30.01 inHg , 1016.3 hPa
Clouds: Mostly cloudy
Visibility: 10 miles , 16 km
Cloud details: Few Clouds 5000 ft
Partly cloudy 16000 ft
Partly cloudy 21000 ft
Mostly cloudy 25000 ft
2017/12/11 21:51 KJFK 112151Z 27007KT 10SM FEW050 SCT160 SCT210 BKN250 04/M05 A3001 RMK AO2 SLP163 T00391050
 
KDXR - Danbury, Connecticut, USA
Distance from station: NNW 42mi, 68km
Updated: Mon, 12/11/2017 4:53 pm EST
Few Clouds
Few Clouds
 Wind from N
Wind: N 3 mph , 6 km/h
Temperature: 36°F , 2°C
Dew Point: 19°F , -7°C
Humidity: 52%
Barometer: 29.98 inHg , 1015.2 hPa
Clouds: Few Clouds
Visibility: 10 miles , 16 km
Cloud details: Few Clouds 4700 ft
2017/12/11 21:53 KDXR 112153Z 36003KT 10SM FEW047 02/M07 A2998 RMK AO2 SLP154 T00171072
KHTO - East Hampton, New York, USA
Distance from station: E 43mi, 69km
Updated: Mon, 12/11/2017 5:35 pm EST
Mostly cloudy
Mostly cloudy
 Wind from calm
Wind: Calm
Temperature: 30°F , -1°C
Dew Point: 23°F , -5°C
Humidity: 75%
Barometer: 30.01 inHg , 1016.3 hPa
Clouds: Mostly cloudy
Visibility: 10 miles , 16 km
Cloud details: Mostly cloudy 4400 ft
2017/12/11 22:35 KHTO 112235Z AUTO 00000KT 10SM BKN044 M01/M05 A3001 RMK AO2 T10141048
 
KOXC - Oxford/Waterbury, Connecticut, USA
Distance from station: N 43mi, 70km
Updated: Mon, 12/11/2017 4:51 pm EST
Clear
Clear
 Wind from WNW
Wind: WNW 5 mph , 7 km/h
Temperature: 34°F , 1°C
Wind Chill: 29°F , -2°C
Dew Point: 18°F , -8°C
Humidity: 51%
Barometer: 29.97 inHg , 1014.9 hPa
Clouds: Clear
Visibility: 10 miles , 16 km
2017/12/11 21:51 KOXC 112151Z 29004KT 10SM CLR 01/M08 A2997 RMK AO2 SLP172 T00061083
KLGA - Nyc/La Guardia, New York, USA
Distance from station: W 44mi, 70km
Updated: Mon, 12/11/2017 4:51 pm EST
Mostly cloudy
Mostly cloudy
 Wind from W
Wind: W 6 mph , 9 km/h
Temperature: 41°F , 5°C
Wind Chill: 37°F , 3°C
Dew Point: 19°F , -7°C
Humidity: 42%
Barometer: 30.00 inHg , 1015.9 hPa
Clouds: Mostly cloudy
Visibility: 10 miles , 16 km
Cloud details: Few Clouds 5000 ft
Mostly cloudy 25000 ft
2017/12/11 21:51 KLGA 112151Z 28005KT 10SM FEW050 BKN250 05/M07 A3000 RMK AO2 SLP157 T00501067 $
 
KSNC - Chester, Connecticut, USA
Distance from station: NE 47mi, 76km
Updated: Mon, 12/11/2017 5:35 pm EST
Clear
Clear
 Wind from WNW
Wind: WNW 3 mph , 6 km/h
Temperature: 34°F , 1°C
Dew Point: 18°F , -8°C
Humidity: 51%
Barometer: 29.99 inHg , 1015.6 hPa
Clouds: Clear
Visibility: 10 miles , 16 km
2017/12/11 22:35 KSNC 112235Z AUTO 30003KT 10SM CLR 01/M08 A2999 RMK AO2
KMMK - Meriden, Connecticut, USA
Distance from station: NNE 48mi, 77km
Updated: Mon, 12/11/2017 4:53 pm EST
Clear
Clear
 Wind from calm
Wind: Calm
Temperature: 30°F , -1°C
Dew Point: 21°F , -6°C
Humidity: 69%
Barometer: 30.00 inHg , 1015.9 hPa
Clouds: Clear
Visibility: 10 miles , 16 km
2017/12/11 21:53 KMMK 112153Z AUTO 00000KT 10SM CLR M01/M06 A3000 RMK AO2 SLP161 T10061056
 
KNYC - Nyc/Central Park, New York, USA
Distance from station: W 48mi, 77km
Updated: Mon, 12/11/2017 4:51 pm EST
Clear
Clear
 Wind from calm
Wind: Calm
Temperature: 39°F , 4°C
Dew Point: 21°F , -6°C
Humidity: 48%
Barometer: 30.02 inHg , 1016.6 hPa
Clouds: Clear
Visibility: 10 miles , 16 km
2017/12/11 21:51 KNYC 112151Z AUTO 00000KT 10SM CLR 04/M06 A3002 RMK AO2 SLP156 T00391061 $